LOT2WA EKCH-EPWA
Flight info
| Callsign | LOT2WA |
|---|---|
| Flight time | 1h 3m |
| Altitude | 35000 |
| Route | SIMEG Z491 TELMO DCT POKEN DCT NASOK N195 SORIX |
| Aircraft | B38M/M-SDE1FGHILORVWXY/HB1 |
Departure
| Time | 2026-04-22 18:50 |
|---|---|
| Airport | Copenhagen Kastrup Airport (EKCH) |
Arrival
| Time | 2026-04-22 19:54 |
|---|---|
| Airport | Warsaw Chopin Airport (EPWA) |
| Time | Latitude | Longitude | Altitude | Speed | Heading |
|---|---|---|---|---|---|
| 2026-04-22 18:13 | 55.62699 | 12.64162 | 26 ft | 0 kts | 32° |
| 2026-04-22 18:37 | 55.62679 | 12.64139 | 28 ft | 4 kts | 32° |
| 2026-04-22 18:38 | 55.62660 | 12.64117 | 29 ft | 4 kts | 40° |
| 2026-04-22 18:38 | 55.62648 | 12.64083 | 30 ft | 4 kts | 93° |
| 2026-04-22 18:38 | 55.62657 | 12.64043 | 29 ft | 4 kts | 128° |
| 2026-04-22 18:39 | 55.62671 | 12.64012 | 31 ft | 2 kts | 123° |
| 2026-04-22 18:41 | 55.62670 | 12.64013 | 31 ft | 1 kts | 123° |
| 2026-04-22 18:42 | 55.62662 | 12.64036 | 31 ft | 4 kts | 123° |
| 2026-04-22 18:42 | 55.62641 | 12.64092 | 28 ft | 4 kts | 123° |
| 2026-04-22 18:42 | 55.62622 | 12.64144 | 29 ft | 6 kts | 124° |
| 2026-04-22 18:42 | 55.62595 | 12.64216 | 27 ft | 8 kts | 123° |
| 2026-04-22 18:43 | 55.62559 | 12.64315 | 29 ft | 11 kts | 123° |
| 2026-04-22 18:43 | 55.62514 | 12.64438 | 28 ft | 13 kts | 123° |
| 2026-04-22 18:43 | 55.62459 | 12.64584 | 27 ft | 15 kts | 123° |
| 2026-04-22 18:43 | 55.62413 | 12.64709 | 26 ft | 10 kts | 123° |
| 2026-04-22 18:44 | 55.62380 | 12.64788 | 27 ft | 8 kts | 118° |
| 2026-04-22 18:44 | 55.62344 | 12.64886 | 26 ft | 11 kts | 138° |
| 2026-04-22 18:44 | 55.62276 | 12.64857 | 26 ft | 12 kts | 218° |
| 2026-04-22 18:44 | 55.62204 | 12.64764 | 26 ft | 14 kts | 215° |
| 2026-04-22 18:45 | 55.62118 | 12.64662 | 27 ft | 16 kts | 213° |
| 2026-04-22 18:45 | 55.62015 | 12.64543 | 27 ft | 19 kts | 211° |
| 2026-04-22 18:45 | 55.61882 | 12.64515 | 28 ft | 21 kts | 171° |
| 2026-04-22 18:45 | 55.61734 | 12.64562 | 28 ft | 23 kts | 173° |
| 2026-04-22 18:46 | 55.61609 | 12.64489 | 26 ft | 19 kts | 213° |
| 2026-04-22 18:46 | 55.61492 | 12.64353 | 26 ft | 21 kts | 213° |
| 2026-04-22 18:46 | 55.61362 | 12.64204 | 28 ft | 23 kts | 213° |
| 2026-04-22 18:46 | 55.61221 | 12.64042 | 27 ft | 25 kts | 213° |
| 2026-04-22 18:47 | 55.61071 | 12.63869 | 27 ft | 27 kts | 213° |
| 2026-04-22 18:47 | 55.60910 | 12.63685 | 29 ft | 28 kts | 213° |
| 2026-04-22 18:47 | 55.60769 | 12.63523 | 28 ft | 19 kts | 213° |
| 2026-04-22 18:47 | 55.60655 | 12.63385 | 29 ft | 21 kts | 218° |
| 2026-04-22 18:48 | 55.60546 | 12.63223 | 28 ft | 20 kts | 221° |
| 2026-04-22 18:48 | 55.60467 | 12.63119 | 26 ft | 13 kts | 194° |
| 2026-04-22 18:48 | 55.60398 | 12.63175 | 26 ft | 8 kts | 134° |
| 2026-04-22 18:48 | 55.60355 | 12.63258 | 28 ft | 9 kts | 131° |
| 2026-04-22 18:49 | 55.60349 | 12.63357 | 29 ft | 9 kts | 53° |
| 2026-04-22 18:49 | 55.60378 | 12.63405 | 28 ft | 5 kts | 42° |
| 2026-04-22 18:49 | 55.60401 | 12.63441 | 27 ft | 1 kts | 41° |
| 2026-04-22 18:49 | 55.60423 | 12.63475 | 27 ft | 12 kts | 41° |
| 2026-04-22 18:50 | 55.60680 | 12.63870 | 28 ft | 86 kts | 41° |
| 2026-04-22 18:50 | 55.61297 | 12.64824 | 27 ft | 147 kts | 41° |
| 2026-04-22 18:50 | 55.61849 | 12.65695 | 113 ft | 169 kts | 41° |
| 2026-04-22 18:50 | 55.62719 | 12.67122 | 765 ft | 172 kts | 37° |
| 2026-04-22 18:51 | 55.63616 | 12.68508 | 1571 ft | 170 kts | 33° |
| 2026-04-22 18:51 | 55.64502 | 12.69856 | 2276 ft | 167 kts | 32° |
| 2026-04-22 18:51 | 55.65679 | 12.71609 | 3026 ft | 168 kts | 31° |
| 2026-04-22 18:51 | 55.66289 | 12.72514 | 3355 ft | 174 kts | 32° |
| 2026-04-22 18:52 | 55.67271 | 12.73961 | 3636 ft | 194 kts | 32° |
| 2026-04-22 18:52 | 55.68237 | 12.75861 | 3812 ft | 231 kts | 59° |
| 2026-04-22 18:52 | 55.68450 | 12.78906 | 4017 ft | 268 kts | 99° |
| 2026-04-22 18:52 | 55.67556 | 12.81896 | 4496 ft | 289 kts | 133° |
| 2026-04-22 18:53 | 55.65967 | 12.84125 | 5202 ft | 293 kts | 140° |
| 2026-04-22 18:53 | 55.64393 | 12.86474 | 5883 ft | 297 kts | 137° |
| 2026-04-22 18:53 | 55.62846 | 12.88901 | 6629 ft | 299 kts | 136° |
| 2026-04-22 18:53 | 55.61317 | 12.91349 | 7325 ft | 300 kts | 135° |
| 2026-04-22 18:54 | 55.59770 | 12.93850 | 8039 ft | 303 kts | 135° |
| 2026-04-22 18:54 | 55.58211 | 12.96387 | 8708 ft | 307 kts | 134° |
| 2026-04-22 18:54 | 55.56635 | 12.98962 | 9416 ft | 309 kts | 134° |
| 2026-04-22 18:54 | 55.55045 | 13.01559 | 10116 ft | 312 kts | 134° |
| 2026-04-22 18:55 | 55.53433 | 13.04195 | 10586 ft | 323 kts | 134° |
| 2026-04-22 18:55 | 55.51748 | 13.06973 | 10785 ft | 342 kts | 134° |
| 2026-04-22 18:55 | 55.49964 | 13.09913 | 10990 ft | 359 kts | 134° |
| 2026-04-22 18:55 | 55.48106 | 13.12964 | 11364 ft | 368 kts | 135° |
| 2026-04-22 18:56 | 55.46218 | 13.16036 | 12050 ft | 369 kts | 135° |
| 2026-04-22 18:56 | 55.44321 | 13.19112 | 12713 ft | 372 kts | 135° |
| 2026-04-22 18:56 | 55.42414 | 13.22193 | 13436 ft | 374 kts | 135° |
| 2026-04-22 18:56 | 55.40488 | 13.25299 | 14141 ft | 377 kts | 135° |
| 2026-04-22 18:57 | 55.38544 | 13.28432 | 14800 ft | 379 kts | 135° |
| 2026-04-22 18:57 | 55.36592 | 13.31571 | 15487 ft | 381 kts | 135° |
| 2026-04-22 18:57 | 55.34649 | 13.34691 | 16155 ft | 384 kts | 135° |
| 2026-04-22 18:57 | 55.32672 | 13.37860 | 16833 ft | 386 kts | 135° |
| 2026-04-22 18:58 | 55.30680 | 13.41049 | 17397 ft | 391 kts | 135° |
| 2026-04-22 18:58 | 55.28663 | 13.44272 | 18023 ft | 393 kts | 135° |
| 2026-04-22 18:58 | 55.26635 | 13.47507 | 18619 ft | 395 kts | 135° |
| 2026-04-22 18:58 | 55.24813 | 13.51080 | 19122 ft | 392 kts | 119° |
| 2026-04-22 18:59 | 55.23458 | 13.55226 | 19628 ft | 393 kts | 116° |
| 2026-04-22 18:59 | 55.22113 | 13.59394 | 20125 ft | 395 kts | 116° |
| 2026-04-22 18:59 | 55.20774 | 13.63596 | 20640 ft | 396 kts | 115° |
| 2026-04-22 18:59 | 55.19434 | 13.67824 | 21151 ft | 398 kts | 115° |
| 2026-04-22 19:00 | 55.18087 | 13.72080 | 21667 ft | 400 kts | 115° |
| 2026-04-22 19:00 | 55.16737 | 13.76344 | 22192 ft | 401 kts | 115° |
| 2026-04-22 19:00 | 55.15379 | 13.80624 | 22724 ft | 403 kts | 115° |
| 2026-04-22 19:00 | 55.14010 | 13.84933 | 23274 ft | 406 kts | 115° |
| 2026-04-22 19:01 | 55.12633 | 13.89261 | 23735 ft | 410 kts | 115° |
| 2026-04-22 19:01 | 55.11241 | 13.93630 | 24181 ft | 412 kts | 115° |
| 2026-04-22 19:01 | 55.09859 | 13.97957 | 24635 ft | 413 kts | 115° |
| 2026-04-22 19:01 | 55.08453 | 14.02349 | 25112 ft | 415 kts | 115° |
| 2026-04-22 19:02 | 55.07042 | 14.06752 | 25591 ft | 416 kts | 115° |
| 2026-04-22 19:02 | 55.05590 | 14.11134 | 26050 ft | 421 kts | 120° |
| 2026-04-22 19:02 | 55.03666 | 14.15032 | 26542 ft | 426 kts | 128° |
| 2026-04-22 19:02 | 55.01680 | 14.18878 | 26940 ft | 428 kts | 127° |
| 2026-04-22 19:03 | 54.99677 | 14.22746 | 27366 ft | 430 kts | 127° |
| 2026-04-22 19:03 | 54.97658 | 14.26618 | 27807 ft | 432 kts | 127° |
| 2026-04-22 19:03 | 54.95633 | 14.30488 | 28234 ft | 434 kts | 127° |
| 2026-04-22 19:03 | 54.93594 | 14.34379 | 28618 ft | 437 kts | 127° |
| 2026-04-22 19:04 | 54.91541 | 14.38285 | 29082 ft | 437 kts | 127° |
| 2026-04-22 19:04 | 54.89485 | 14.42193 | 29520 ft | 439 kts | 127° |
| 2026-04-22 19:04 | 54.87421 | 14.46110 | 29877 ft | 441 kts | 127° |
| 2026-04-22 19:04 | 54.85346 | 14.50040 | 30258 ft | 443 kts | 127° |
| 2026-04-22 19:05 | 54.83260 | 14.53986 | 30584 ft | 444 kts | 127° |
| 2026-04-22 19:05 | 54.81345 | 14.58154 | 30898 ft | 438 kts | 116° |
| 2026-04-22 19:05 | 54.79778 | 14.62656 | 31335 ft | 436 kts | 116° |
| 2026-04-22 19:05 | 54.78177 | 14.67101 | 31743 ft | 435 kts | 116° |
| 2026-04-22 19:06 | 54.76585 | 14.71544 | 32205 ft | 433 kts | 116° |
| 2026-04-22 19:06 | 54.74997 | 14.75979 | 32678 ft | 432 kts | 116° |
| 2026-04-22 19:06 | 54.73414 | 14.80394 | 33075 ft | 431 kts | 116° |
| 2026-04-22 19:07 | 54.70255 | 14.89184 | 33913 ft | 429 kts | 116° |
| 2026-04-22 19:07 | 54.68680 | 14.93555 | 34328 ft | 427 kts | 116° |
| 2026-04-22 19:07 | 54.67112 | 14.97900 | 34679 ft | 426 kts | 116° |
| 2026-04-22 19:07 | 54.65539 | 15.02250 | 35019 ft | 425 kts | 116° |
| 2026-04-22 19:08 | 54.63987 | 15.06536 | 35169 ft | 427 kts | 116° |
| 2026-04-22 19:08 | 54.60852 | 15.15169 | 35166 ft | 423 kts | 116° |
| 2026-04-22 19:09 | 54.57713 | 15.23785 | 35176 ft | 424 kts | 116° |
| 2026-04-22 19:09 | 54.54549 | 15.32434 | 35186 ft | 426 kts | 116° |
| 2026-04-22 19:10 | 54.51398 | 15.41022 | 35157 ft | 423 kts | 116° |
| 2026-04-22 19:10 | 54.48244 | 15.49586 | 35161 ft | 424 kts | 116° |
| 2026-04-22 19:11 | 54.45086 | 15.58131 | 35167 ft | 424 kts | 116° |
| 2026-04-22 19:11 | 54.41913 | 15.66689 | 35160 ft | 424 kts | 117° |
| 2026-04-22 19:12 | 54.38756 | 15.75173 | 35156 ft | 424 kts | 117° |
| 2026-04-22 19:12 | 54.35574 | 15.83695 | 35154 ft | 424 kts | 117° |
| 2026-04-22 19:13 | 54.32382 | 15.92217 | 35157 ft | 424 kts | 117° |
| 2026-04-22 19:13 | 54.29189 | 16.00710 | 35162 ft | 424 kts | 117° |
| 2026-04-22 19:14 | 54.25989 | 16.09193 | 35161 ft | 424 kts | 117° |
| 2026-04-22 19:14 | 54.22778 | 16.17676 | 35167 ft | 426 kts | 117° |
| 2026-04-22 19:15 | 54.20097 | 16.24737 | 35164 ft | 426 kts | 117° |
| 2026-04-22 19:15 | 54.16338 | 16.34603 | 35151 ft | 426 kts | 117° |
| 2026-04-22 19:16 | 54.13096 | 16.43081 | 35173 ft | 425 kts | 117° |
| 2026-04-22 19:16 | 54.09870 | 16.51490 | 35165 ft | 423 kts | 117° |
| 2026-04-22 19:17 | 54.06638 | 16.59886 | 35179 ft | 424 kts | 117° |
| 2026-04-22 19:17 | 54.03394 | 16.68284 | 35156 ft | 425 kts | 117° |
| 2026-04-22 19:18 | 54.00135 | 16.76692 | 35162 ft | 425 kts | 117° |
| 2026-04-22 19:18 | 53.96894 | 16.85026 | 35158 ft | 425 kts | 117° |
| 2026-04-22 19:19 | 53.93621 | 16.93415 | 35159 ft | 425 kts | 117° |
| 2026-04-22 19:19 | 53.90347 | 17.01777 | 35173 ft | 425 kts | 117° |
| 2026-04-22 19:20 | 53.87059 | 17.10147 | 35151 ft | 427 kts | 117° |
| 2026-04-22 19:20 | 53.83754 | 17.18533 | 35150 ft | 427 kts | 117° |
| 2026-04-22 19:21 | 53.80449 | 17.26890 | 35144 ft | 427 kts | 117° |
| 2026-04-22 19:21 | 53.77161 | 17.35177 | 35150 ft | 427 kts | 117° |
| 2026-04-22 19:22 | 53.73840 | 17.43520 | 35142 ft | 427 kts | 117° |
| 2026-04-22 19:22 | 53.70517 | 17.51841 | 35147 ft | 426 kts | 117° |
| 2026-04-22 19:23 | 53.67197 | 17.60124 | 35134 ft | 426 kts | 117° |
| 2026-04-22 19:23 | 53.63867 | 17.68407 | 35141 ft | 427 kts | 117° |
| 2026-04-22 19:24 | 53.60530 | 17.76680 | 35136 ft | 426 kts | 117° |
| 2026-04-22 19:24 | 53.57188 | 17.84937 | 35137 ft | 427 kts | 117° |
| 2026-04-22 19:25 | 53.53839 | 17.93187 | 35133 ft | 428 kts | 117° |
| 2026-04-22 19:25 | 53.50476 | 18.01442 | 35127 ft | 428 kts | 117° |
| 2026-04-22 19:26 | 53.47106 | 18.09687 | 35125 ft | 428 kts | 117° |
| 2026-04-22 19:26 | 53.43753 | 18.17865 | 35127 ft | 428 kts | 117° |
| 2026-04-22 19:27 | 53.40373 | 18.26082 | 35122 ft | 428 kts | 117° |
| 2026-04-22 19:27 | 53.36983 | 18.34296 | 35132 ft | 429 kts | 117° |
| 2026-04-22 19:28 | 53.33577 | 18.42520 | 35116 ft | 430 kts | 117° |
| 2026-04-22 19:28 | 53.30160 | 18.50747 | 35133 ft | 430 kts | 117° |
| 2026-04-22 19:29 | 53.26757 | 18.58914 | 35111 ft | 427 kts | 117° |
| 2026-04-22 19:29 | 53.23372 | 18.67016 | 35110 ft | 428 kts | 117° |
| 2026-04-22 19:30 | 53.20520 | 18.73827 | 35131 ft | 428 kts | 117° |
| 2026-04-22 19:30 | 53.16535 | 18.83309 | 35115 ft | 429 kts | 117° |
| 2026-04-22 19:30 | 53.14832 | 18.87352 | 34665 ft | 426 kts | 117° |
| 2026-04-22 19:31 | 53.13132 | 18.91381 | 34083 ft | 423 kts | 117° |
| 2026-04-22 19:31 | 53.11451 | 18.95357 | 33652 ft | 416 kts | 117° |
| 2026-04-22 19:31 | 53.09800 | 18.99253 | 33250 ft | 410 kts | 118° |
| 2026-04-22 19:31 | 53.07984 | 19.03056 | 32572 ft | 426 kts | 121° |
| 2026-04-22 19:32 | 53.06106 | 19.06902 | 31754 ft | 431 kts | 121° |
| 2026-04-22 19:32 | 53.04241 | 19.10755 | 30979 ft | 435 kts | 122° |
| 2026-04-22 19:32 | 53.02338 | 19.14701 | 30223 ft | 439 kts | 122° |
| 2026-04-22 19:32 | 53.00414 | 19.18695 | 29317 ft | 445 kts | 122° |
| 2026-04-22 19:33 | 52.98465 | 19.22735 | 28673 ft | 450 kts | 122° |
| 2026-04-22 19:33 | 52.96505 | 19.26796 | 28100 ft | 453 kts | 123° |
| 2026-04-22 19:33 | 52.94534 | 19.30868 | 27493 ft | 452 kts | 123° |
| 2026-04-22 19:33 | 52.92563 | 19.34937 | 26883 ft | 451 kts | 123° |
| 2026-04-22 19:34 | 52.90602 | 19.38979 | 26277 ft | 449 kts | 123° |
| 2026-04-22 19:34 | 52.88673 | 19.42946 | 25678 ft | 447 kts | 124° |
| 2026-04-22 19:34 | 52.86699 | 19.47002 | 25077 ft | 446 kts | 124° |
| 2026-04-22 19:34 | 52.84780 | 19.50937 | 24496 ft | 445 kts | 124° |
| 2026-04-22 19:35 | 52.82839 | 19.54913 | 23923 ft | 444 kts | 124° |
| 2026-04-22 19:35 | 52.80895 | 19.58887 | 23247 ft | 443 kts | 125° |
| 2026-04-22 19:35 | 52.79612 | 19.61509 | 22821 ft | 440 kts | 125° |
| 2026-04-22 19:35 | 52.77052 | 19.66727 | 22041 ft | 435 kts | 125° |
| 2026-04-22 19:36 | 52.75153 | 19.70591 | 21658 ft | 426 kts | 125° |
| 2026-04-22 19:36 | 52.73314 | 19.74329 | 21469 ft | 414 kts | 124° |
| 2026-04-22 19:36 | 52.71524 | 19.77964 | 21254 ft | 404 kts | 124° |
| 2026-04-22 19:36 | 52.69778 | 19.81531 | 21040 ft | 393 kts | 122° |
| 2026-04-22 19:37 | 52.68371 | 19.85327 | 20645 ft | 387 kts | 114° |
| 2026-04-22 19:37 | 52.67488 | 19.87889 | 20394 ft | 388 kts | 115° |
| 2026-04-22 19:37 | 52.65558 | 19.92901 | 19728 ft | 399 kts | 120° |
| 2026-04-22 19:37 | 52.63956 | 19.96736 | 19294 ft | 412 kts | 120° |
| 2026-04-22 19:38 | 52.62348 | 20.00624 | 18802 ft | 409 kts | 120° |
| 2026-04-22 19:38 | 52.60757 | 20.04491 | 18296 ft | 407 kts | 120° |
| 2026-04-22 19:38 | 52.59686 | 20.07096 | 17942 ft | 405 kts | 120° |
| 2026-04-22 19:38 | 52.58113 | 20.10922 | 17446 ft | 402 kts | 120° |
| 2026-04-22 19:39 | 52.56566 | 20.14682 | 16958 ft | 399 kts | 120° |
| 2026-04-22 19:39 | 52.55017 | 20.18441 | 16471 ft | 396 kts | 120° |
| 2026-04-22 19:39 | 52.53478 | 20.22172 | 16010 ft | 393 kts | 120° |
| 2026-04-22 19:39 | 52.52446 | 20.24670 | 15704 ft | 391 kts | 120° |
| 2026-04-22 19:40 | 52.50426 | 20.29551 | 15096 ft | 387 kts | 120° |
| 2026-04-22 19:40 | 52.48914 | 20.33201 | 14671 ft | 385 kts | 120° |
| 2026-04-22 19:40 | 52.47413 | 20.36816 | 14235 ft | 381 kts | 120° |
| 2026-04-22 19:40 | 52.45928 | 20.40392 | 13827 ft | 378 kts | 120° |
| 2026-04-22 19:41 | 52.44448 | 20.43945 | 13312 ft | 375 kts | 120° |
| 2026-04-22 19:41 | 52.42999 | 20.47421 | 12836 ft | 373 kts | 120° |
| 2026-04-22 19:41 | 52.41533 | 20.50936 | 12358 ft | 370 kts | 120° |
| 2026-04-22 19:41 | 52.40086 | 20.54398 | 11943 ft | 366 kts | 120° |
| 2026-04-22 19:42 | 52.38663 | 20.57798 | 11722 ft | 358 kts | 120° |
| 2026-04-22 19:42 | 52.37275 | 20.61111 | 11529 ft | 348 kts | 120° |
| 2026-04-22 19:42 | 52.35918 | 20.64346 | 11364 ft | 338 kts | 120° |
| 2026-04-22 19:42 | 52.34599 | 20.67486 | 11196 ft | 329 kts | 120° |
| 2026-04-22 19:43 | 52.32092 | 20.73443 | 10953 ft | 310 kts | 120° |
| 2026-04-22 19:43 | 52.30891 | 20.76292 | 10836 ft | 300 kts | 120° |
| 2026-04-22 19:43 | 52.29720 | 20.79066 | 10680 ft | 293 kts | 120° |
| 2026-04-22 19:44 | 52.28566 | 20.81798 | 10344 ft | 292 kts | 120° |
| 2026-04-22 19:44 | 52.27419 | 20.84511 | 10040 ft | 291 kts | 120° |
| 2026-04-22 19:44 | 52.26268 | 20.87229 | 9721 ft | 290 kts | 121° |
| 2026-04-22 19:44 | 52.25121 | 20.89934 | 9351 ft | 290 kts | 121° |
| 2026-04-22 19:45 | 52.23976 | 20.92634 | 9004 ft | 289 kts | 121° |
| 2026-04-22 19:45 | 52.22830 | 20.95331 | 8653 ft | 289 kts | 121° |
| 2026-04-22 19:45 | 52.21701 | 20.97986 | 8319 ft | 289 kts | 122° |
| 2026-04-22 19:45 | 52.20557 | 21.00674 | 7985 ft | 288 kts | 122° |
| 2026-04-22 19:46 | 52.19411 | 21.03363 | 7643 ft | 288 kts | 122° |
| 2026-04-22 19:46 | 52.18269 | 21.06043 | 7316 ft | 288 kts | 122° |
| 2026-04-22 19:46 | 52.17124 | 21.08726 | 6986 ft | 288 kts | 123° |
| 2026-04-22 19:46 | 52.15982 | 21.11397 | 6667 ft | 288 kts | 123° |
| 2026-04-22 19:47 | 52.14584 | 21.13710 | 6301 ft | 289 kts | 149° |
| 2026-04-22 19:47 | 52.12813 | 21.15266 | 5929 ft | 289 kts | 153° |
| 2026-04-22 19:47 | 52.11049 | 21.16799 | 5640 ft | 287 kts | 153° |
| 2026-04-22 19:47 | 52.09292 | 21.18332 | 5357 ft | 286 kts | 153° |
| 2026-04-22 19:48 | 52.07543 | 21.19859 | 5071 ft | 284 kts | 153° |
| 2026-04-22 19:48 | 52.05731 | 21.21054 | 4759 ft | 278 kts | 175° |
| 2026-04-22 19:48 | 52.03891 | 21.20778 | 4610 ft | 258 kts | 206° |
| 2026-04-22 19:48 | 52.02474 | 21.19224 | 4403 ft | 238 kts | 235° |
| 2026-04-22 19:49 | 52.01700 | 21.16992 | 4215 ft | 219 kts | 259° |
| 2026-04-22 19:49 | 52.01504 | 21.14681 | 4009 ft | 203 kts | 272° |
| 2026-04-22 19:49 | 52.01456 | 21.12442 | 3784 ft | 194 kts | 276° |
| 2026-04-22 19:49 | 52.01856 | 21.10449 | 3472 ft | 183 kts | 306° |
| 2026-04-22 19:50 | 52.02707 | 21.08995 | 3229 ft | 176 kts | 321° |
| 2026-04-22 19:50 | 52.03712 | 21.07932 | 3000 ft | 170 kts | 329° |
| 2026-04-22 19:50 | 52.04735 | 21.07024 | 2780 ft | 165 kts | 330° |
| 2026-04-22 19:50 | 52.05734 | 21.06159 | 2557 ft | 160 kts | 330° |
| 2026-04-22 19:51 | 52.06718 | 21.05304 | 2343 ft | 161 kts | 329° |
| 2026-04-22 19:51 | 52.07699 | 21.04452 | 2126 ft | 159 kts | 329° |
| 2026-04-22 19:51 | 52.08649 | 21.03624 | 1937 ft | 146 kts | 328° |
| 2026-04-22 19:51 | 52.09512 | 21.02871 | 1748 ft | 137 kts | 328° |
| 2026-04-22 19:52 | 52.10347 | 21.02141 | 1552 ft | 136 kts | 329° |
| 2026-04-22 19:52 | 52.11188 | 21.01410 | 1358 ft | 137 kts | 329° |
| 2026-04-22 19:52 | 52.12035 | 21.00672 | 1169 ft | 139 kts | 330° |
| 2026-04-22 19:52 | 52.12901 | 20.99918 | 969 ft | 143 kts | 330° |
| 2026-04-22 19:53 | 52.13785 | 20.99151 | 779 ft | 148 kts | 330° |
| 2026-04-22 19:53 | 52.14706 | 20.98333 | 571 ft | 152 kts | 329° |
| 2026-04-22 19:53 | 52.15644 | 20.97524 | 369 ft | 151 kts | 330° |
| 2026-04-22 19:53 | 52.16457 | 20.96815 | 339 ft | 99 kts | 332° |
| 2026-04-22 19:54 | 52.16818 | 20.96499 | 340 ft | 30 kts | 332° |
| 2026-04-22 19:54 | 52.17022 | 20.96323 | 337 ft | 31 kts | 335° |
| 2026-04-22 19:54 | 52.17235 | 20.96242 | 338 ft | 32 kts | 359° |
| 2026-04-22 19:54 | 52.17358 | 20.96250 | 340 ft | 10 kts | 10° |
| 2026-04-22 19:55 | 52.17411 | 20.96333 | 337 ft | 12 kts | 62° |
| 2026-04-22 19:55 | 52.17454 | 20.96462 | 339 ft | 11 kts | 60° |
| 2026-04-22 19:55 | 52.17452 | 20.96578 | 338 ft | 12 kts | 141° |
| 2026-04-22 19:55 | 52.17372 | 20.96653 | 341 ft | 14 kts | 152° |
| 2026-04-22 19:56 | 52.17279 | 20.96733 | 337 ft | 16 kts | 152° |
| 2026-04-22 19:56 | 52.17196 | 20.96806 | 341 ft | 12 kts | 151° |
| 2026-04-22 19:56 | 52.17112 | 20.96881 | 341 ft | 15 kts | 152° |
| 2026-04-22 19:56 | 52.17032 | 20.96951 | 339 ft | 7 kts | 146° |
| 2026-04-22 19:57 | 52.17031 | 20.97026 | 339 ft | 8 kts | 69° |
| 2026-04-22 19:57 | 52.17046 | 20.97095 | 340 ft | 2 kts | 70° |
| 2026-04-22 19:57 | 52.17047 | 20.97101 | 340 ft | 0 kts | 71° |